sensor_id;sensor_type;location;lat;lon;timestamp;P1;durP1;ratioP1;P2;durP2;ratioP2
52494;SDS011;38405;53.212;5.660;2022-10-13T00:00:37;48.08;;;23.40;;
52494;SDS011;38405;53.212;5.660;2022-10-13T00:03:03;44.80;;;21.92;;
52494;SDS011;38405;53.212;5.660;2022-10-13T00:05:29;40.85;;;22.75;;
52494;SDS011;38405;53.212;5.660;2022-10-13T00:07:55;52.55;;;24.30;;
52494;SDS011;38405;53.212;5.660;2022-10-13T00:10:21;45.85;;;23.50;;
52494;SDS011;38405;53.212;5.660;2022-10-13T00:12:47;46.05;;;23.23;;
52494;SDS011;38405;53.212;5.660;2022-10-13T00:15:13;44.85;;;23.55;;
52494;SDS011;38405;53.212;5.660;2022-10-13T00:17:39;43.15;;;20.88;;
52494;SDS011;38405;53.212;5.660;2022-10-13T00:20:06;43.28;;;23.33;;
52494;SDS011;38405;53.212;5.660;2022-10-13T00:22:32;44.47;;;22.98;;
52494;SDS011;38405;53.212;5.660;2022-10-13T00:24:58;40.55;;;22.30;;
52494;SDS011;38405;53.212;5.660;2022-10-13T00:27:23;46.30;;;24.20;;
52494;SDS011;38405;53.212;5.660;2022-10-13T00:29:49;40.90;;;22.75;;
52494;SDS011;38405;53.212;5.660;2022-10-13T00:32:14;44.88;;;22.67;;
52494;SDS011;38405;53.212;5.660;2022-10-13T00:34:40;42.85;;;23.52;;
52494;SDS011;38405;53.212;5.660;2022-10-13T00:37:06;42.78;;;23.35;;
52494;SDS011;38405;53.212;5.660;2022-10-13T00:39:32;45.03;;;24.70;;
52494;SDS011;38405;53.212;5.660;2022-10-13T00:41:58;42.53;;;23.48;;
52494;SDS011;38405;53.212;5.660;2022-10-13T00:47:33;58.90;;;24.30;;
52494;SDS011;38405;53.212;5.660;2022-10-13T00:50:08;56.00;;;23.20;;
52494;SDS011;38405;53.212;5.660;2022-10-13T00:52:36;60.83;;;24.85;;
52494;SDS011;38405;53.212;5.660;2022-10-13T00:55:05;41.30;;;23.00;;
52494;SDS011;38405;53.212;5.660;2022-10-13T00:57:33;43.00;;;22.55;;
52494;SDS011;38405;53.212;5.660;2022-10-13T01:00:00;48.25;;;22.52;;
52494;SDS011;38405;53.212;5.660;2022-10-13T01:02:28;43.22;;;23.38;;
52494;SDS011;38405;53.212;5.660;2022-10-13T01:04:56;45.45;;;23.42;;
52494;SDS011;38405;53.212;5.660;2022-10-13T01:07:23;44.10;;;23.10;;
52494;SDS011;38405;53.212;5.660;2022-10-13T01:09:49;50.75;;;24.55;;
52494;SDS011;38405;53.212;5.660;2022-10-13T01:12:27;45.75;;;23.25;;
52494;SDS011;38405;53.212;5.660;2022-10-13T01:15:33;38.78;;;22.08;;
52494;SDS011;38405;53.212;5.660;2022-10-13T01:29:08;48.20;;;24.75;;
52494;SDS011;38405;53.212;5.660;2022-10-13T01:34:32;50.03;;;23.58;;
52494;SDS011;38405;53.212;5.660;2022-10-13T01:39:34;46.80;;;23.83;;
52494;SDS011;38405;53.212;5.660;2022-10-13T01:42:23;46.28;;;23.20;;
52494;SDS011;38405;53.212;5.660;2022-10-13T01:45:00;51.17;;;22.05;;
52494;SDS011;38405;53.212;5.660;2022-10-13T01:47:28;43.10;;;21.55;;
52494;SDS011;38405;53.212;5.660;2022-10-13T01:49:56;58.50;;;24.27;;
52494;SDS011;38405;53.212;5.660;2022-10-13T01:52:24;41.78;;;21.90;;
52494;SDS011;38405;53.212;5.660;2022-10-13T01:54:55;46.45;;;22.55;;
52494;SDS011;38405;53.212;5.660;2022-10-13T01:57:34;38.63;;;20.60;;
52494;SDS011;38405;53.212;5.660;2022-10-13T02:00:09;41.60;;;22.55;;
52494;SDS011;38405;53.212;5.660;2022-10-13T02:10:43;38.05;;;21.25;;
52494;SDS011;38405;53.212;5.660;2022-10-13T02:13:18;39.55;;;21.27;;
52494;SDS011;38405;53.212;5.660;2022-10-13T02:15:49;35.42;;;20.88;;
52494;SDS011;38405;53.212;5.660;2022-10-13T02:18:20;41.80;;;20.92;;
52494;SDS011;38405;53.212;5.660;2022-10-13T02:20:49;43.08;;;22.70;;
52494;SDS011;38405;53.212;5.660;2022-10-13T02:23:16;42.45;;;21.38;;
52494;SDS011;38405;53.212;5.660;2022-10-13T02:25:42;45.28;;;20.65;;
52494;SDS011;38405;53.212;5.660;2022-10-13T02:28:08;41.05;;;22.30;;
52494;SDS011;38405;53.212;5.660;2022-10-13T02:30:37;34.58;;;21.02;;
52494;SDS011;38405;53.212;5.660;2022-10-13T02:33:03;41.40;;;21.48;;
52494;SDS011;38405;53.212;5.660;2022-10-13T02:35:29;41.72;;;20.20;;
52494;SDS011;38405;53.212;5.660;2022-10-13T02:37:56;39.88;;;20.90;;
52494;SDS011;38405;53.212;5.660;2022-10-13T02:40:22;39.67;;;22.30;;
52494;SDS011;38405;53.212;5.660;2022-10-13T02:42:48;53.90;;;22.95;;
52494;SDS011;38405;53.212;5.660;2022-10-13T02:45:14;39.50;;;20.40;;
52494;SDS011;38405;53.212;5.660;2022-10-13T02:47:39;31.33;;;18.88;;
52494;SDS011;38405;53.212;5.660;2022-10-13T02:50:05;40.75;;;20.33;;
52494;SDS011;38405;53.212;5.660;2022-10-13T02:52:31;39.85;;;20.65;;
52494;SDS011;38405;53.212;5.660;2022-10-13T02:54:57;41.17;;;20.48;;
52494;SDS011;38405;53.212;5.660;2022-10-13T02:57:22;38.58;;;19.83;;
52494;SDS011;38405;53.212;5.660;2022-10-13T02:59:48;37.97;;;19.20;;
52494;SDS011;38405;53.212;5.660;2022-10-13T03:02:14;35.30;;;19.90;;
52494;SDS011;38405;53.212;5.660;2022-10-13T03:04:40;41.10;;;21.23;;
52494;SDS011;38405;53.212;5.660;2022-10-13T03:07:05;40.78;;;20.40;;
52494;SDS011;38405;53.212;5.660;2022-10-13T03:09:31;47.53;;;21.42;;
52494;SDS011;38405;53.212;5.660;2022-10-13T03:11:57;40.10;;;20.38;;
52494;SDS011;38405;53.212;5.660;2022-10-13T03:14:22;38.42;;;20.20;;
52494;SDS011;38405;53.212;5.660;2022-10-13T03:16:48;34.72;;;18.45;;
52494;SDS011;38405;53.212;5.660;2022-10-13T03:19:14;42.85;;;20.73;;
52494;SDS011;38405;53.212;5.660;2022-10-13T03:21:39;30.77;;;20.15;;
52494;SDS011;38405;53.212;5.660;2022-10-13T03:24:05;36.03;;;18.45;;
52494;SDS011;38405;53.212;5.660;2022-10-13T03:26:31;40.72;;;20.02;;
52494;SDS011;38405;53.212;5.660;2022-10-13T03:28:57;41.10;;;21.20;;
52494;SDS011;38405;53.212;5.660;2022-10-13T03:31:23;38.70;;;19.80;;
52494;SDS011;38405;53.212;5.660;2022-10-13T03:33:49;36.90;;;19.63;;
52494;SDS011;38405;53.212;5.660;2022-10-13T03:36:15;42.00;;;20.45;;
52494;SDS011;38405;53.212;5.660;2022-10-13T03:38:41;45.35;;;21.42;;
52494;SDS011;38405;53.212;5.660;2022-10-13T03:41:08;41.45;;;21.30;;
52494;SDS011;38405;53.212;5.660;2022-10-13T03:43:36;44.67;;;22.05;;
52494;SDS011;38405;53.212;5.660;2022-10-13T03:46:05;38.97;;;20.58;;
52494;SDS011;38405;53.212;5.660;2022-10-13T03:48:32;38.83;;;21.45;;
52494;SDS011;38405;53.212;5.660;2022-10-13T03:51:02;41.70;;;21.00;;
52494;SDS011;38405;53.212;5.660;2022-10-13T03:53:32;40.72;;;20.70;;
52494;SDS011;38405;53.212;5.660;2022-10-13T03:55:59;46.58;;;22.20;;
52494;SDS011;38405;53.212;5.660;2022-10-13T03:58:25;37.28;;;21.77;;
52494;SDS011;38405;53.212;5.660;2022-10-13T04:01:02;44.58;;;22.77;;
52494;SDS011;38405;53.212;5.660;2022-10-13T04:03:29;45.40;;;23.15;;
52494;SDS011;38405;53.212;5.660;2022-10-13T04:05:58;43.05;;;22.33;;
52494;SDS011;38405;53.212;5.660;2022-10-13T04:08:25;41.17;;;20.33;;
52494;SDS011;38405;53.212;5.660;2022-10-13T04:10:59;43.22;;;20.67;;
52494;SDS011;38405;53.212;5.660;2022-10-13T04:13:25;41.40;;;22.92;;
52494;SDS011;38405;53.212;5.660;2022-10-13T04:15:51;40.85;;;23.00;;
52494;SDS011;38405;53.212;5.660;2022-10-13T04:18:17;51.13;;;23.25;;
52494;SDS011;38405;53.212;5.660;2022-10-13T04:20:42;42.55;;;22.10;;
52494;SDS011;38405;53.212;5.660;2022-10-13T04:23:08;43.05;;;23.52;;
52494;SDS011;38405;53.212;5.660;2022-10-13T04:25:34;46.55;;;24.88;;
52494;SDS011;38405;53.212;5.660;2022-10-13T04:28:06;44.28;;;23.17;;
52494;SDS011;38405;53.212;5.660;2022-10-13T04:30:32;41.95;;;23.23;;
52494;SDS011;38405;53.212;5.660;2022-10-13T04:32:59;45.20;;;24.40;;
52494;SDS011;38405;53.212;5.660;2022-10-13T04:35:24;48.25;;;24.52;;
52494;SDS011;38405;53.212;5.660;2022-10-13T04:37:50;55.78;;;25.48;;
52494;SDS011;38405;53.212;5.660;2022-10-13T04:40:15;46.60;;;24.35;;
52494;SDS011;38405;53.212;5.660;2022-10-13T04:42:42;46.20;;;24.13;;
52494;SDS011;38405;53.212;5.660;2022-10-13T04:45:07;53.95;;;24.50;;
52494;SDS011;38405;53.212;5.660;2022-10-13T04:47:34;52.45;;;25.73;;
52494;SDS011;38405;53.212;5.660;2022-10-13T04:50:00;45.80;;;22.92;;
52494;SDS011;38405;53.212;5.660;2022-10-13T04:52:26;43.78;;;24.48;;
52494;SDS011;38405;53.212;5.660;2022-10-13T04:54:51;45.22;;;23.88;;
52494;SDS011;38405;53.212;5.660;2022-10-13T04:57:17;50.50;;;22.65;;
52494;SDS011;38405;53.212;5.660;2022-10-13T04:59:43;51.17;;;24.45;;
52494;SDS011;38405;53.212;5.660;2022-10-13T05:02:08;45.85;;;24.10;;
52494;SDS011;38405;53.212;5.660;2022-10-13T05:04:34;52.97;;;26.73;;
52494;SDS011;38405;53.212;5.660;2022-10-13T05:07:00;44.47;;;24.80;;
52494;SDS011;38405;53.212;5.660;2022-10-13T05:09:26;48.35;;;25.67;;
52494;SDS011;38405;53.212;5.660;2022-10-13T05:11:52;50.50;;;23.95;;
52494;SDS011;38405;53.212;5.660;2022-10-13T05:14:19;44.13;;;23.15;;
52494;SDS011;38405;53.212;5.660;2022-10-13T05:16:45;56.45;;;24.63;;
52494;SDS011;38405;53.212;5.660;2022-10-13T05:19:11;50.45;;;26.25;;
52494;SDS011;38405;53.212;5.660;2022-10-13T05:21:37;44.80;;;24.70;;
52494;SDS011;38405;53.212;5.660;2022-10-13T05:24:03;60.85;;;26.58;;
52494;SDS011;38405;53.212;5.660;2022-10-13T05:26:30;42.40;;;21.35;;
52494;SDS011;38405;53.212;5.660;2022-10-13T05:28:59;57.97;;;25.10;;
52494;SDS011;38405;53.212;5.660;2022-10-13T05:31:26;46.13;;;23.38;;
52494;SDS011;38405;53.212;5.660;2022-10-13T05:33:53;47.75;;;25.02;;
52494;SDS011;38405;53.212;5.660;2022-10-13T05:36:20;51.83;;;26.55;;
52494;SDS011;38405;53.212;5.660;2022-10-13T05:38:51;55.28;;;24.60;;
52494;SDS011;38405;53.212;5.660;2022-10-13T05:41:18;48.63;;;24.35;;
52494;SDS011;38405;53.212;5.660;2022-10-13T05:43:47;53.92;;;24.48;;
52494;SDS011;38405;53.212;5.660;2022-10-13T05:46:15;52.85;;;24.48;;
52494;SDS011;38405;53.212;5.660;2022-10-13T05:48:40;53.40;;;24.23;;
52494;SDS011;38405;53.212;5.660;2022-10-13T05:51:09;43.92;;;24.25;;
52494;SDS011;38405;53.212;5.660;2022-10-13T05:53:38;48.47;;;24.98;;
52494;SDS011;38405;53.212;5.660;2022-10-13T05:56:09;60.70;;;26.67;;
52494;SDS011;38405;53.212;5.660;2022-10-13T05:58:41;70.30;;;28.88;;
52494;SDS011;38405;53.212;5.660;2022-10-13T06:01:14;61.25;;;26.20;;
52494;SDS011;38405;53.212;5.660;2022-10-13T06:03:45;59.60;;;25.88;;
52494;SDS011;38405;53.212;5.660;2022-10-13T06:06:12;59.03;;;24.73;;
52494;SDS011;38405;53.212;5.660;2022-10-13T06:08:41;63.53;;;27.35;;
52494;SDS011;38405;53.212;5.660;2022-10-13T06:11:07;61.53;;;25.73;;
52494;SDS011;38405;53.212;5.660;2022-10-13T06:13:33;57.53;;;27.95;;
52494;SDS011;38405;53.212;5.660;2022-10-13T06:15:59;62.15;;;28.48;;
52494;SDS011;38405;53.212;5.660;2022-10-13T06:18:25;70.13;;;28.17;;
52494;SDS011;38405;53.212;5.660;2022-10-13T06:20:53;65.13;;;28.80;;
52494;SDS011;38405;53.212;5.660;2022-10-13T06:23:19;66.45;;;27.30;;
52494;SDS011;38405;53.212;5.660;2022-10-13T06:25:48;64.47;;;27.40;;
52494;SDS011;38405;53.212;5.660;2022-10-13T06:28:17;66.70;;;27.60;;
52494;SDS011;38405;53.212;5.660;2022-10-13T06:30:44;60.35;;;27.20;;
52494;SDS011;38405;53.212;5.660;2022-10-13T06:33:18;63.08;;;27.15;;
52494;SDS011;38405;53.212;5.660;2022-10-13T06:35:44;53.17;;;26.40;;
52494;SDS011;38405;53.212;5.660;2022-10-13T06:38:10;54.85;;;25.15;;
52494;SDS011;38405;53.212;5.660;2022-10-13T06:40:35;61.13;;;26.30;;
52494;SDS011;38405;53.212;5.660;2022-10-13T06:43:01;47.92;;;24.23;;
52494;SDS011;38405;53.212;5.660;2022-10-13T06:45:27;58.05;;;25.45;;
52494;SDS011;38405;53.212;5.660;2022-10-13T06:47:53;58.10;;;25.40;;
52494;SDS011;38405;53.212;5.660;2022-10-13T06:50:19;56.50;;;24.67;;
52494;SDS011;38405;53.212;5.660;2022-10-13T06:52:45;57.75;;;25.42;;
52494;SDS011;38405;53.212;5.660;2022-10-13T06:55:11;66.35;;;26.90;;
52494;SDS011;38405;53.212;5.660;2022-10-13T06:57:37;65.53;;;27.80;;
52494;SDS011;38405;53.212;5.660;2022-10-13T07:00:03;61.28;;;26.73;;
52494;SDS011;38405;53.212;5.660;2022-10-13T07:02:30;55.75;;;26.63;;
52494;SDS011;38405;53.212;5.660;2022-10-13T07:04:55;52.85;;;26.33;;
52494;SDS011;38405;53.212;5.660;2022-10-13T07:07:21;57.17;;;25.73;;
52494;SDS011;38405;53.212;5.660;2022-10-13T07:09:47;59.05;;;26.05;;
52494;SDS011;38405;53.212;5.660;2022-10-13T07:12:13;66.78;;;28.10;;
52494;SDS011;38405;53.212;5.660;2022-10-13T07:14:39;74.55;;;30.67;;
52494;SDS011;38405;53.212;5.660;2022-10-13T07:17:05;78.13;;;30.83;;
52494;SDS011;38405;53.212;5.660;2022-10-13T07:19:31;68.53;;;31.23;;
52494;SDS011;38405;53.212;5.660;2022-10-13T07:21:57;61.15;;;29.42;;
52494;SDS011;38405;53.212;5.660;2022-10-13T07:24:23;70.85;;;30.85;;
52494;SDS011;38405;53.212;5.660;2022-10-13T07:26:48;61.15;;;30.27;;
52494;SDS011;38405;53.212;5.660;2022-10-13T07:29:14;66.35;;;31.08;;
52494;SDS011;38405;53.212;5.660;2022-10-13T07:31:41;82.07;;;34.25;;
52494;SDS011;38405;53.212;5.660;2022-10-13T07:34:07;71.45;;;32.17;;
52494;SDS011;38405;53.212;5.660;2022-10-13T07:36:33;79.93;;;34.65;;
52494;SDS011;38405;53.212;5.660;2022-10-13T07:38:59;63.28;;;33.08;;
52494;SDS011;38405;53.212;5.660;2022-10-13T07:41:27;61.80;;;31.27;;
52494;SDS011;38405;53.212;5.660;2022-10-13T07:43:53;71.20;;;32.90;;
52494;SDS011;38405;53.212;5.660;2022-10-13T07:46:20;68.93;;;32.25;;
52494;SDS011;38405;53.212;5.660;2022-10-13T07:48:45;75.88;;;33.78;;
52494;SDS011;38405;53.212;5.660;2022-10-13T07:51:11;80.22;;;35.35;;
52494;SDS011;38405;53.212;5.660;2022-10-13T07:53:38;62.10;;;31.83;;
52494;SDS011;38405;53.212;5.660;2022-10-13T07:56:05;74.47;;;34.40;;
52494;SDS011;38405;53.212;5.660;2022-10-13T07:58:35;77.22;;;34.35;;
52494;SDS011;38405;53.212;5.660;2022-10-13T08:01:02;71.32;;;33.22;;
52494;SDS011;38405;53.212;5.660;2022-10-13T08:03:28;76.45;;;33.33;;
52494;SDS011;38405;53.212;5.660;2022-10-13T08:05:54;68.70;;;35.47;;
52494;SDS011;38405;53.212;5.660;2022-10-13T08:08:23;69.55;;;31.70;;
52494;SDS011;38405;53.212;5.660;2022-10-13T08:10:49;59.97;;;32.10;;
52494;SDS011;38405;53.212;5.660;2022-10-13T08:13:14;60.17;;;31.73;;
52494;SDS011;38405;53.212;5.660;2022-10-13T08:15:40;66.47;;;33.47;;
52494;SDS011;38405;53.212;5.660;2022-10-13T08:18:08;69.60;;;32.10;;
52494;SDS011;38405;53.212;5.660;2022-10-13T08:20:38;61.53;;;31.90;;
52494;SDS011;38405;53.212;5.660;2022-10-13T08:23:07;52.20;;;30.73;;
52494;SDS011;38405;53.212;5.660;2022-10-13T08:25:37;55.03;;;31.50;;
52494;SDS011;38405;53.212;5.660;2022-10-13T08:28:05;53.53;;;29.75;;
52494;SDS011;38405;53.212;5.660;2022-10-13T08:30:31;52.95;;;29.55;;
52494;SDS011;38405;53.212;5.660;2022-10-13T08:32:57;49.22;;;27.35;;
52494;SDS011;38405;53.212;5.660;2022-10-13T08:35:22;50.65;;;27.65;;
52494;SDS011;38405;53.212;5.660;2022-10-13T08:37:48;47.22;;;27.75;;
52494;SDS011;38405;53.212;5.660;2022-10-13T08:40:15;41.25;;;26.45;;
52494;SDS011;38405;53.212;5.660;2022-10-13T08:42:43;49.03;;;26.58;;
52494;SDS011;38405;53.212;5.660;2022-10-13T08:45:14;50.78;;;29.35;;
52494;SDS011;38405;53.212;5.660;2022-10-13T08:47:59;42.78;;;26.73;;
52494;SDS011;38405;53.212;5.660;2022-10-13T08:50:34;37.63;;;26.33;;
52494;SDS011;38405;53.212;5.660;2022-10-13T08:53:10;43.38;;;26.58;;
52494;SDS011;38405;53.212;5.660;2022-10-13T08:55:54;43.20;;;26.30;;
52494;SDS011;38405;53.212;5.660;2022-10-13T08:58:27;37.05;;;24.10;;
52494;SDS011;38405;53.212;5.660;2022-10-13T09:03:52;34.40;;;21.77;;
52494;SDS011;38405;53.212;5.660;2022-10-13T09:06:23;35.40;;;22.67;;
52494;SDS011;38405;53.212;5.660;2022-10-13T09:11:53;35.20;;;22.50;;
52494;SDS011;38405;53.212;5.660;2022-10-13T09:14:20;35.08;;;21.42;;
52494;SDS011;38405;53.212;5.660;2022-10-13T09:16:47;35.35;;;21.30;;
52494;SDS011;38405;53.212;5.660;2022-10-13T09:19:19;32.45;;;20.70;;
52494;SDS011;38405;53.212;5.660;2022-10-13T09:21:48;32.30;;;21.38;;
52494;SDS011;38405;53.212;5.660;2022-10-13T09:24:32;32.75;;;18.67;;
52494;SDS011;38405;53.212;5.660;2022-10-13T09:27:06;31.08;;;18.92;;
52494;SDS011;38405;53.212;5.660;2022-10-13T09:29:39;29.65;;;20.10;;
52494;SDS011;38405;53.212;5.660;2022-10-13T09:32:07;27.70;;;18.67;;
52494;SDS011;38405;53.212;5.660;2022-10-13T09:34:42;32.75;;;20.17;;
52494;SDS011;38405;53.212;5.660;2022-10-13T09:37:21;32.17;;;20.05;;
52494;SDS011;38405;53.212;5.660;2022-10-13T09:40:01;32.05;;;20.02;;
52494;SDS011;38405;53.212;5.660;2022-10-13T09:42:38;36.05;;;19.95;;
52494;SDS011;38405;53.212;5.660;2022-10-13T09:45:11;30.42;;;20.33;;
52494;SDS011;38405;53.212;5.660;2022-10-13T09:47:40;27.02;;;20.10;;
52494;SDS011;38405;53.212;5.660;2022-10-13T09:50:18;32.33;;;20.52;;
52494;SDS011;38405;53.212;5.660;2022-10-13T09:53:08;29.80;;;20.63;;
52494;SDS011;38405;53.212;5.660;2022-10-13T09:58:47;29.80;;;18.15;;
52494;SDS011;38405;53.212;5.660;2022-10-13T10:01:26;32.60;;;17.52;;
52494;SDS011;38405;53.212;5.660;2022-10-13T10:04:00;22.98;;;14.32;;
52494;SDS011;38405;53.212;5.660;2022-10-13T10:06:30;20.98;;;14.05;;
52494;SDS011;38405;53.212;5.660;2022-10-13T10:11:43;15.93;;;10.57;;
52494;SDS011;38405;53.212;5.660;2022-10-13T10:14:18;15.73;;;8.63;;
52494;SDS011;38405;53.212;5.660;2022-10-13T10:22:24;11.02;;;7.40;;
52494;SDS011;38405;53.212;5.660;2022-10-13T10:25:07;17.60;;;7.82;;
52494;SDS011;38405;53.212;5.660;2022-10-13T10:27:44;11.68;;;7.25;;
52494;SDS011;38405;53.212;5.660;2022-10-13T10:30:20;13.55;;;6.93;;
52494;SDS011;38405;53.212;5.660;2022-10-13T10:32:53;14.73;;;5.90;;
52494;SDS011;38405;53.212;5.660;2022-10-13T10:35:47;13.63;;;5.80;;
52494;SDS011;38405;53.212;5.660;2022-10-13T10:38:31;16.42;;;5.38;;
52494;SDS011;38405;53.212;5.660;2022-10-13T10:43:48;13.77;;;5.50;;
52494;SDS011;38405;53.212;5.660;2022-10-13T10:46:23;18.45;;;5.72;;
52494;SDS011;38405;53.212;5.660;2022-10-13T10:49:00;14.70;;;5.22;;
52494;SDS011;38405;53.212;5.660;2022-10-13T10:51:35;10.25;;;4.65;;
52494;SDS011;38405;53.212;5.660;2022-10-13T10:56:42;11.40;;;4.15;;
52494;SDS011;38405;53.212;5.660;2022-10-13T11:01:50;7.28;;;2.72;;
52494;SDS011;38405;53.212;5.660;2022-10-13T11:04:44;6.25;;;3.13;;
52494;SDS011;38405;53.212;5.660;2022-10-13T11:14:45;10.43;;;2.45;;
52494;SDS011;38405;53.212;5.660;2022-10-13T11:17:31;9.20;;;2.33;;
52494;SDS011;38405;53.212;5.660;2022-10-13T11:20:01;12.25;;;2.60;;
52494;SDS011;38405;53.212;5.660;2022-10-13T11:25:39;10.95;;;2.33;;
52494;SDS011;38405;53.212;5.660;2022-10-13T11:30:56;8.27;;;2.33;;
52494;SDS011;38405;53.212;5.660;2022-10-13T11:33:32;6.88;;;1.88;;
52494;SDS011;38405;53.212;5.660;2022-10-13T11:39:01;6.75;;;2.08;;
52494;SDS011;38405;53.212;5.660;2022-10-13T11:44:59;6.22;;;2.00;;
52494;SDS011;38405;53.212;5.660;2022-10-13T11:50:25;10.20;;;2.10;;
52494;SDS011;38405;53.212;5.660;2022-10-13T11:53:02;6.85;;;2.13;;
52494;SDS011;38405;53.212;5.660;2022-10-13T11:55:38;8.77;;;2.25;;
52494;SDS011;38405;53.212;5.660;2022-10-13T12:00:48;6.20;;;2.10;;
52494;SDS011;38405;53.212;5.660;2022-10-13T12:03:32;6.80;;;2.00;;
52494;SDS011;38405;53.212;5.660;2022-10-13T12:06:29;7.13;;;2.30;;
52494;SDS011;38405;53.212;5.660;2022-10-13T12:08:59;8.98;;;2.33;;
52494;SDS011;38405;53.212;5.660;2022-10-13T12:11:31;5.13;;;1.73;;
52494;SDS011;38405;53.212;5.660;2022-10-13T12:14:00;5.43;;;1.90;;
52494;SDS011;38405;53.212;5.660;2022-10-13T12:16:28;11.68;;;2.33;;
52494;SDS011;38405;53.212;5.660;2022-10-13T12:19:05;5.80;;;2.10;;
52494;SDS011;38405;53.212;5.660;2022-10-13T12:21:49;8.15;;;1.80;;
52494;SDS011;38405;53.212;5.660;2022-10-13T12:24:16;7.60;;;1.95;;
52494;SDS011;38405;53.212;5.660;2022-10-13T12:26:41;7.88;;;1.88;;
52494;SDS011;38405;53.212;5.660;2022-10-13T12:29:12;3.38;;;1.42;;
52494;SDS011;38405;53.212;5.660;2022-10-13T12:31:39;9.23;;;2.05;;
52494;SDS011;38405;53.212;5.660;2022-10-13T12:34:22;3.50;;;1.08;;
52494;SDS011;38405;53.212;5.660;2022-10-13T12:37:00;4.45;;;1.35;;
52494;SDS011;38405;53.212;5.660;2022-10-13T12:39:35;6.00;;;1.48;;
52494;SDS011;38405;53.212;5.660;2022-10-13T12:42:02;5.05;;;1.45;;
52494;SDS011;38405;53.212;5.660;2022-10-13T12:44:30;6.53;;;1.88;;
52494;SDS011;38405;53.212;5.660;2022-10-13T12:46:57;9.38;;;2.22;;
52494;SDS011;38405;53.212;5.660;2022-10-13T12:51:52;7.47;;;1.40;;
52494;SDS011;38405;53.212;5.660;2022-10-13T12:54:33;4.95;;;1.67;;
52494;SDS011;38405;53.212;5.660;2022-10-13T12:57:05;6.70;;;1.50;;
52494;SDS011;38405;53.212;5.660;2022-10-13T12:59:45;7.60;;;1.60;;
52494;SDS011;38405;53.212;5.660;2022-10-13T13:04:45;5.68;;;1.30;;
52494;SDS011;38405;53.212;5.660;2022-10-13T13:07:25;9.48;;;1.60;;
52494;SDS011;38405;53.212;5.660;2022-10-13T13:09:59;8.32;;;1.60;;
52494;SDS011;38405;53.212;5.660;2022-10-13T13:12:27;4.53;;;1.25;;
52494;SDS011;38405;53.212;5.660;2022-10-13T13:14:54;11.57;;;1.98;;
52494;SDS011;38405;53.212;5.660;2022-10-13T13:17:30;6.70;;;1.88;;
52494;SDS011;38405;53.212;5.660;2022-10-13T13:19:56;6.15;;;1.73;;
52494;SDS011;38405;53.212;5.660;2022-10-13T13:22:22;4.93;;;1.30;;
52494;SDS011;38405;53.212;5.660;2022-10-13T13:24:49;4.93;;;1.58;;
52494;SDS011;38405;53.212;5.660;2022-10-13T13:27:23;4.07;;;1.60;;
52494;SDS011;38405;53.212;5.660;2022-10-13T13:29:50;7.68;;;1.77;;
52494;SDS011;38405;53.212;5.660;2022-10-13T13:32:18;5.93;;;1.50;;
52494;SDS011;38405;53.212;5.660;2022-10-13T13:34:45;9.27;;;2.00;;
52494;SDS011;38405;53.212;5.660;2022-10-13T13:37:56;8.77;;;1.83;;
52494;SDS011;38405;53.212;5.660;2022-10-13T13:40:05;5.40;;;1.70;;
52494;SDS011;38405;53.212;5.660;2022-10-13T13:42:32;6.22;;;1.88;;
52494;SDS011;38405;53.212;5.660;2022-10-13T13:44:58;6.03;;;1.50;;
52494;SDS011;38405;53.212;5.660;2022-10-13T13:47:24;8.55;;;1.48;;
52494;SDS011;38405;53.212;5.660;2022-10-13T13:49:52;9.23;;;1.52;;
52494;SDS011;38405;53.212;5.660;2022-10-13T13:52:20;7.60;;;1.73;;
52494;SDS011;38405;53.212;5.660;2022-10-13T13:54:46;5.35;;;1.52;;
52494;SDS011;38405;53.212;5.660;2022-10-13T13:57:13;5.38;;;1.63;;
52494;SDS011;38405;53.212;5.660;2022-10-13T13:59:39;10.50;;;1.58;;
52494;SDS011;38405;53.212;5.660;2022-10-13T14:02:06;4.43;;;1.40;;
52494;SDS011;38405;53.212;5.660;2022-10-13T14:07:04;4.07;;;1.60;;
52494;SDS011;38405;53.212;5.660;2022-10-13T14:09:30;7.28;;;1.98;;
52494;SDS011;38405;53.212;5.660;2022-10-13T14:11:55;7.75;;;1.67;;
52494;SDS011;38405;53.212;5.660;2022-10-13T14:14:21;9.02;;;1.50;;
52494;SDS011;38405;53.212;5.660;2022-10-13T14:16:46;7.68;;;1.65;;
52494;SDS011;38405;53.212;5.660;2022-10-13T14:19:12;4.43;;;1.42;;
52494;SDS011;38405;53.212;5.660;2022-10-13T14:21:38;4.53;;;1.80;;
52494;SDS011;38405;53.212;5.660;2022-10-13T14:24:03;9.18;;;2.30;;
52494;SDS011;38405;53.212;5.660;2022-10-13T14:26:29;6.03;;;1.95;;
52494;SDS011;38405;53.212;5.660;2022-10-13T14:28:55;6.25;;;2.35;;
52494;SDS011;38405;53.212;5.660;2022-10-13T14:31:22;6.05;;;1.80;;
52494;SDS011;38405;53.212;5.660;2022-10-13T14:33:48;9.48;;;2.28;;
52494;SDS011;38405;53.212;5.660;2022-10-13T14:36:14;9.95;;;2.17;;
52494;SDS011;38405;53.212;5.660;2022-10-13T14:38:39;5.65;;;1.70;;
52494;SDS011;38405;53.212;5.660;2022-10-13T14:41:05;8.70;;;1.75;;
52494;SDS011;38405;53.212;5.660;2022-10-13T14:43:31;7.60;;;1.80;;
52494;SDS011;38405;53.212;5.660;2022-10-13T14:46:01;6.72;;;1.95;;
52494;SDS011;38405;53.212;5.660;2022-10-13T14:48:29;10.68;;;3.20;;
52494;SDS011;38405;53.212;5.660;2022-10-13T14:50:58;7.13;;;2.92;;
52494;SDS011;38405;53.212;5.660;2022-10-13T14:53:27;5.05;;;1.80;;
52494;SDS011;38405;53.212;5.660;2022-10-13T14:55:53;5.88;;;1.52;;
52494;SDS011;38405;53.212;5.660;2022-10-13T14:58:18;8.30;;;1.85;;
52494;SDS011;38405;53.212;5.660;2022-10-13T15:00:44;11.43;;;2.20;;
52494;SDS011;38405;53.212;5.660;2022-10-13T15:03:10;5.68;;;1.30;;
52494;SDS011;38405;53.212;5.660;2022-10-13T15:05:35;5.75;;;1.38;;
52494;SDS011;38405;53.212;5.660;2022-10-13T15:08:02;5.78;;;1.63;;
52494;SDS011;38405;53.212;5.660;2022-10-13T15:10:27;8.68;;;1.85;;
52494;SDS011;38405;53.212;5.660;2022-10-13T15:12:54;7.70;;;1.55;;
52494;SDS011;38405;53.212;5.660;2022-10-13T15:15:20;7.97;;;2.20;;
52494;SDS011;38405;53.212;5.660;2022-10-13T15:17:45;16.70;;;2.80;;
52494;SDS011;38405;53.212;5.660;2022-10-13T15:20:11;6.28;;;2.17;;
52494;SDS011;38405;53.212;5.660;2022-10-13T15:22:36;8.02;;;2.13;;
52494;SDS011;38405;53.212;5.660;2022-10-13T15:25:02;10.35;;;2.80;;
52494;SDS011;38405;53.212;5.660;2022-10-13T15:27:32;6.03;;;2.00;;
52494;SDS011;38405;53.212;5.660;2022-10-13T15:29:59;10.40;;;1.58;;
52494;SDS011;38405;53.212;5.660;2022-10-13T15:32:25;8.50;;;1.73;;
52494;SDS011;38405;53.212;5.660;2022-10-13T15:34:51;6.13;;;2.03;;
52494;SDS011;38405;53.212;5.660;2022-10-13T15:37:16;7.35;;;1.45;;
52494;SDS011;38405;53.212;5.660;2022-10-13T15:39:42;7.65;;;1.50;;
52494;SDS011;38405;53.212;5.660;2022-10-13T15:42:08;9.90;;;1.55;;
52494;SDS011;38405;53.212;5.660;2022-10-13T15:44:35;4.82;;;2.17;;
52494;SDS011;38405;53.212;5.660;2022-10-13T15:47:01;6.93;;;2.00;;
52494;SDS011;38405;53.212;5.660;2022-10-13T15:49:26;5.18;;;1.50;;
52494;SDS011;38405;53.212;5.660;2022-10-13T15:51:52;6.45;;;1.90;;
52494;SDS011;38405;53.212;5.660;2022-10-13T15:54:19;7.53;;;1.92;;
52494;SDS011;38405;53.212;5.660;2022-10-13T15:56:45;11.35;;;2.45;;
52494;SDS011;38405;53.212;5.660;2022-10-13T15:59:11;8.57;;;1.75;;
52494;SDS011;38405;53.212;5.660;2022-10-13T16:01:37;6.60;;;1.88;;
52494;SDS011;38405;53.212;5.660;2022-10-13T16:04:02;5.82;;;1.70;;